Time;durP1;ratioP1;P1;durP2;ratioP2;P2;SDS_P1;SDS_P2;PMS_P1;PMS_P2;Temp;Humidity;BMP_temperature;BMP_pressure;BME280_temperature;BME280_humidity;BME280_pressure;Samples;Min_cycle;Max_cycle;Signal;HPM_P1;HPM_P2
2022/06/15 00:01:14;;;;;;;;;6.75;6.75;;;;;21.22;42.27;100762.34;5048815;28;45410;-79
2022/06/15 00:03:40;;;;;;;;;4.25;4.25;;;;;21.18;42.49;100767.06;5052882;28;45370;-78
2022/06/15 00:06:21;;;;;;;;;8.50;7.50;;;;;21.14;42.34;100759.28;5044964;28;45419;-79
2022/06/15 00:08:51;;;;;;;;;8.00;6.00;;;;;21.14;42.58;100767.34;5043190;28;45424;-79
2022/06/15 00:11:21;;;;;;;;;7.25;5.50;;;;;21.09;42.45;100752.34;5038725;28;45703;-79
2022/06/15 00:13:47;;;;;;;;;8.00;7.75;;;;;21.12;42.53;100756.69;5037713;28;45435;-79
2022/06/15 00:16:13;;;;;;;;;5.50;5.50;;;;;21.08;43.00;100760.50;5032208;28;45529;-78
2022/06/15 00:18:38;;;;;;;;;5.50;5.50;;;;;21.01;42.57;100753.78;5040309;28;45571;-80
2022/06/15 00:21:05;;;;;;;;;5.75;5.75;;;;;21.04;42.84;100759.81;5033151;28;45300;-79
2022/06/15 00:23:33;;;;;;;;;6.00;6.00;;;;;21.01;43.00;100748.41;5038582;28;45639;-78
2022/06/15 00:25:59;;;;;;;;;7.25;7.25;;;;;20.99;42.96;100761.06;5040047;28;45439;-77
2022/06/15 00:28:26;;;;;;;;;6.25;6.25;;;;;20.94;42.77;100748.78;5040059;28;45463;-79
2022/06/15 00:30:53;;;;;;;;;3.75;3.75;;;;;20.96;43.33;100761.25;5040923;28;45396;-79
2022/06/15 00:33:21;;;;;;;;;4.50;4.00;;;;;20.85;42.96;100754.72;5048107;28;46228;-79
2022/06/15 00:35:58;;;;;;;;;6.50;4.00;;;;;20.86;43.19;100755.56;5055186;28;45513;-78
2022/06/15 00:38:28;;;;;;;;;6.75;4.50;;;;;20.86;43.11;100759.13;5042597;28;45445;-79
2022/06/15 00:40:55;;;;;;;;;6.50;4.25;;;;;20.86;43.13;100760.94;5027787;28;45473;-79
2022/06/15 00:43:46;;;;;;;;;5.50;4.00;;;;;20.81;43.47;100768.41;5028510;28;45982;-79
2022/06/15 00:46:22;;;;;;;;;7.00;7.00;;;;;20.77;43.35;100768.59;5038026;28;45444;-81
2022/06/15 00:48:54;;;;;;;;;7.00;7.00;;;;;20.72;43.51;100761.75;5033127;28;45425;-79
2022/06/15 00:51:20;;;;;;;;;7.50;4.00;;;;;20.70;43.56;100767.22;5029916;28;45753;-79
2022/06/15 00:53:46;;;;;;;;;3.50;3.50;;;;;20.71;43.77;100768.09;5025259;28;45485;-78
2022/06/15 00:56:12;;;;;;;;;5.00;4.25;;;;;20.70;43.85;100767.22;5034520;28;45566;-79
2022/06/15 00:58:40;;;;;;;;;3.00;3.00;;;;;20.64;43.30;100770.25;5028971;28;45558;-78
2022/06/15 01:01:06;;;;;;;;;3.00;3.00;;;;;20.61;43.57;100773.13;5051121;28;45437;-77
2022/06/15 01:03:32;;;;;;;;;3.50;3.50;;;;;20.57;43.67;100766.19;5046144;28;46399;-80
2022/06/15 01:06:14;;;;;;;;;6.75;5.75;;;;;20.56;43.76;100764.47;5034543;28;45361;-79
2022/06/15 01:08:49;;;;;;;;;3.50;3.25;;;;;20.50;44.16;100770.22;5034155;28;45513;-80
2022/06/15 01:11:49;;;;;;;;;5.50;3.25;;;;;20.47;44.12;100765.03;5052455;28;45519;-79
2022/06/15 01:14:51;;;;;;;;;6.00;3.50;;;;;20.44;44.37;100759.81;5054106;28;45723;-78
2022/06/15 01:17:51;;;;;;;;;3.25;3.25;;;;;20.38;44.30;100772.63;5049974;28;45436;-79
2022/06/15 01:20:36;;;;;;;;;6.75;4.00;;;;;20.31;44.85;100771.25;5048296;28;45328;-79
2022/06/15 01:23:26;;;;;;;;;4.25;3.00;;;;;20.27;45.02;100766.16;5035337;28;45397;-79
2022/06/15 01:26:06;;;;;;;;;6.00;4.25;;;;;20.16;45.28;100748.88;5044692;28;45509;-79
2022/06/15 01:28:44;;;;;;;;;2.50;2.50;;;;;20.19;45.12;100769.28;5023049;28;45477;-79
2022/06/15 01:31:24;;;;;;;;;2.00;2.00;;;;;20.15;45.33;100765.91;5048585;28;45523;-77
2022/06/15 01:34:17;;;;;;;;;3.25;3.00;;;;;20.10;45.46;100757.25;5050187;28;45376;-79
2022/06/15 01:36:57;;;;;;;;;5.00;5.00;;;;;20.03;45.93;100767.47;5041894;28;45474;-79
2022/06/15 01:39:25;;;;;;;;;3.00;3.00;;;;;20.05;45.83;100764.72;5048963;28;45523;-79
2022/06/15 01:42:09;;;;;;;;;5.50;3.00;;;;;20.08;45.80;100763.69;5041415;28;45445;-79
2022/06/15 01:44:39;;;;;;;;;3.50;2.00;;;;;20.00;46.18;100756.91;5044001;28;45413;-79
2022/06/15 01:47:07;;;;;;;;;3.50;3.50;;;;;19.99;46.28;100757.88;5045131;28;45397;-79
2022/06/15 01:49:40;;;;;;;;;7.25;6.00;;;;;19.97;46.19;100750.88;5041904;28;45410;-79
2022/06/15 01:52:09;;;;;;;;;5.00;3.00;;;;;19.95;46.59;100752.75;5040418;28;45491;-78
2022/06/15 01:54:42;;;;;;;;;2.00;2.00;;;;;19.83;46.97;100746.25;5031237;28;45440;-78
2022/06/15 01:57:10;;;;;;;;;4.75;2.75;;;;;19.83;47.21;100743.59;5046514;28;45522;-78
2022/06/15 01:59:42;;;;;;;;;6.00;3.00;;;;;19.80;47.49;100739.28;5044686;28;45365;-79
2022/06/15 02:02:41;;;;;;;;;3.25;3.25;;;;;19.75;47.57;100741.31;5052352;28;45532;-78
2022/06/15 02:05:16;;;;;;;;;3.25;3.25;;;;;19.73;48.01;100735.16;5037768;28;45438;-78
2022/06/15 02:07:57;;;;;;;;;3.00;3.00;;;;;19.75;47.56;100741.31;5051119;28;45573;-79
2022/06/15 02:10:29;;;;;;;;;5.50;4.00;;;;;19.70;47.84;100733.50;5045080;28;45486;-79
2022/06/15 02:13:10;;;;;;;;;3.00;3.00;;;;;19.70;48.07;100728.16;5047345;28;45463;-79
2022/06/15 02:15:38;;;;;;;;;7.25;4.25;;;;;19.64;48.26;100728.50;5037945;28;45507;-78
2022/06/15 02:18:08;;;;;;;;;3.25;3.25;;;;;19.62;48.20;100719.69;5043513;28;45373;-79
2022/06/15 02:20:41;;;;;;;;;3.00;3.00;;;;;19.57;48.33;100737.84;5044767;28;45401;-79
2022/06/15 02:23:11;;;;;;;;;4.00;3.25;;;;;19.55;48.61;100739.72;5038728;28;45583;-80
2022/06/15 02:25:41;;;;;;;;;5.00;5.00;;;;;19.50;48.87;100731.09;5040831;28;45477;-79
2022/06/15 02:28:07;;;;;;;;;5.75;5.75;;;;;19.46;48.96;100729.50;5039860;28;45452;-78
2022/06/15 02:30:33;;;;;;;;;7.00;5.00;;;;;19.44;49.07;100731.44;5054846;28;45549;-79
2022/06/15 02:33:12;;;;;;;;;6.00;3.50;;;;;19.35;49.33;100717.56;5039134;28;45503;-80
2022/06/15 02:35:39;;;;;;;;;3.00;3.00;;;;;19.32;49.16;100720.41;5041750;28;45478;-79
2022/06/15 02:38:04;;;;;;;;;4.00;3.50;;;;;19.29;49.53;100720.56;5045191;28;45470;-79
2022/06/15 02:40:30;;;;;;;;;5.00;3.25;;;;;19.31;49.63;100729.41;5047891;28;45335;-80
2022/06/15 02:42:55;;;;;;;;;3.00;3.00;;;;;19.35;49.66;100735.47;5037731;28;45426;-79
2022/06/15 02:45:28;;;;;;;;;3.25;3.25;;;;;19.33;49.86;100730.19;5040633;28;45375;-80
2022/06/15 02:47:55;;;;;;;;;2.25;2.25;;;;;19.32;50.12;100725.78;5042762;28;46186;-79
2022/06/15 02:50:22;;;;;;;;;5.75;4.50;;;;;19.26;50.38;100723.41;5033139;28;45544;-80
2022/06/15 02:53:06;;;;;;;;;3.50;3.50;;;;;19.23;50.55;100718.22;5041932;28;45437;-80
2022/06/15 02:55:33;;;;;;;;;5.00;5.00;;;;;19.25;50.88;100727.06;5054458;28;45409;-79
2022/06/15 02:58:07;;;;;;;;;5.50;5.50;;;;;19.23;50.63;100726.28;5054483;28;45564;-80
2022/06/15 03:00:34;;;;;;;;;3.00;3.00;;;;;19.24;51.10;100728.00;5037270;28;45513;-79
2022/06/15 03:02:59;;;;;;;;;5.00;3.00;;;;;19.21;50.80;100728.19;5050309;28;45456;-79
2022/06/15 03:05:24;;;;;;;;;4.00;2.50;;;;;19.19;50.64;100732.72;5038584;28;45486;-79
2022/06/15 03:07:50;;;;;;;;;3.00;3.00;;;;;19.19;51.02;100735.41;5040962;28;45583;-80
2022/06/15 03:10:15;;;;;;;;;6.00;5.00;;;;;19.13;51.34;100727.69;5044272;28;45419;-80
2022/06/15 03:12:41;;;;;;;;;4.25;4.25;;;;;19.11;51.16;100732.28;5050878;28;45385;-79
2022/06/15 03:15:07;;;;;;;;;2.50;2.50;;;;;19.12;51.62;100731.34;5051812;28;45426;-79
2022/06/15 03:17:32;;;;;;;;;2.75;2.25;;;;;19.06;51.58;100729.84;5023917;28;45607;-79
2022/06/15 03:19:58;;;;;;;;;4.00;2.50;;;;;19.06;51.57;100735.22;5039400;28;45417;-79
2022/06/15 03:22:23;;;;;;;;;4.00;3.00;;;;;19.08;51.17;100740.50;5044146;28;45340;-80
2022/06/15 03:24:48;;;;;;;;;6.00;5.00;;;;;19.06;51.39;100732.53;5027541;28;45320;-81
2022/06/15 03:27:14;;;;;;;;;3.50;2.75;;;;;19.06;51.62;100742.38;5038454;28;46052;-80
2022/06/15 03:29:40;;;;;;;;;2.75;2.75;;;;;19.04;52.41;100739.78;5044905;28;45431;-79
2022/06/15 03:32:06;;;;;;;;;2.75;2.75;;;;;18.98;52.15;100737.44;5048929;28;45395;-78
2022/06/15 03:34:31;;;;;;;;;4.50;4.50;;;;;18.98;52.25;100738.28;5033607;28;45416;-79
2022/06/15 03:36:56;;;;;;;;;5.25;5.25;;;;;18.98;52.08;100740.97;5044765;28;45591;-79
2022/06/15 03:39:22;;;;;;;;;2.75;2.75;;;;;18.95;52.46;100741.13;5042014;28;45479;-78
2022/06/15 03:41:48;;;;;;;;;5.00;5.00;;;;;18.93;52.36;100732.31;5045860;28;45452;-78
2022/06/15 03:44:13;;;;;;;;;4.00;4.00;;;;;18.88;52.60;100733.50;5040488;28;45558;-79
2022/06/15 03:46:38;;;;;;;;;3.25;3.00;;;;;18.86;52.73;100736.28;5027231;28;46228;-79
2022/06/15 03:49:05;;;;;;;;;6.00;2.00;;;;;18.87;53.08;100737.13;5014956;28;45483;-79
2022/06/15 03:51:30;;;;;;;;;5.00;5.00;;;;;18.81;52.99;100733.78;5033101;28;45519;-79
2022/06/15 03:53:57;;;;;;;;;6.00;6.00;;;;;18.83;53.09;100736.41;5040548;28;45645;-77
2022/06/15 03:56:23;;;;;;;;;2.00;2.00;;;;;18.82;53.25;100737.31;5048014;28;46181;-79
2022/06/15 03:58:48;;;;;;;;;6.50;5.50;;;;;18.80;53.13;100737.41;5039200;28;45517;-78
2022/06/15 04:01:13;;;;;;;;;3.00;3.00;;;;;18.77;53.06;100731.38;5040329;28;45382;-79
2022/06/15 04:03:39;;;;;;;;;6.75;5.00;;;;;18.83;53.02;100737.25;5030920;28;45880;-78
2022/06/15 04:06:05;;;;;;;;;5.00;3.50;;;;;18.88;52.71;100737.03;5031667;28;48561;-77
2022/06/15 04:08:42;;;;;;;;;5.00;5.00;;;;;18.87;53.14;100729.94;5029679;28;45497;-76
2022/06/15 04:11:11;;;;;;;;;6.00;3.00;;;;;18.86;53.38;100730.91;5038709;28;45375;-77
2022/06/15 04:13:37;;;;;;;;;6.00;6.00;;;;;18.89;53.38;100735.22;5038552;28;45420;-76
2022/06/15 04:16:06;;;;;;;;;3.00;3.00;;;;;18.91;53.19;100736.88;5045270;28;45902;-76
2022/06/15 04:18:32;;;;;;;;;4.50;4.50;;;;;18.94;53.19;100734.03;5040844;28;45386;-76
2022/06/15 04:20:58;;;;;;;;;6.00;6.00;;;;;18.96;53.01;100732.16;5040474;28;45489;-76
2022/06/15 04:23:23;;;;;;;;;3.50;3.50;;;;;19.04;52.78;100733.56;5052545;28;45445;-77
2022/06/15 04:25:54;;;;;;;;;6.00;5.75;;;;;19.05;52.86;100736.16;5053060;28;45504;-76
2022/06/15 04:28:21;;;;;;;;;6.00;5.00;;;;;19.10;52.75;100738.59;5048421;28;45538;-76
2022/06/15 04:30:47;;;;;;;;;6.00;4.50;;;;;19.28;52.40;100736.72;5039067;28;45470;-76
2022/06/15 04:33:13;;;;;;;;;5.00;5.00;;;;;19.59;51.71;100730.56;5038834;28;45552;-75
2022/06/15 04:35:39;;;;;;;;;5.75;5.75;;;;;19.86;51.23;100733.56;5023825;28;45838;-76
2022/06/15 04:38:06;;;;;;;;;6.00;4.00;;;;;20.26;50.01;100738.47;5029348;28;45428;-76
2022/06/15 04:40:33;;;;;;;;;4.00;4.00;;;;;20.54;49.33;100744.91;5032938;28;45431;-75
2022/06/15 04:42:58;;;;;;;;;5.75;5.75;;;;;20.98;48.55;100743.22;5044425;28;45347;-76
2022/06/15 04:45:24;;;;;;;;;5.00;4.00;;;;;21.46;47.85;100741.13;5047347;28;46090;-77
2022/06/15 04:47:49;;;;;;;;;6.00;4.00;;;;;21.98;46.67;100735.13;5042527;28;45343;-76
2022/06/15 04:50:15;;;;;;;;;5.75;3.00;;;;;22.39;45.17;100736.06;5038738;28;45429;-77
2022/06/15 04:52:43;;;;;;;;;5.75;5.75;;;;;22.81;44.37;100736.81;5037114;28;45451;-78
2022/06/15 04:55:11;;;;;;;;;7.75;6.00;;;;;23.30;43.50;100740.63;5048586;28;48793;-77
2022/06/15 04:57:36;;;;;;;;;2.75;2.75;;;;;23.78;43.32;100723.72;5035885;28;45563;-77
2022/06/15 05:00:05;;;;;;;;;6.50;5.00;;;;;24.22;41.22;100738.50;5035214;28;45385;-78
2022/06/15 05:02:31;;;;;;;;;4.00;4.00;;;;;24.69;41.27;100735.00;5046158;28;45625;-77
2022/06/15 05:04:59;;;;;;;;;6.00;4.75;;;;;25.06;39.64;100724.06;5033742;28;45411;-77
2022/06/15 05:07:24;;;;;;;;;3.50;3.50;;;;;25.24;38.85;100730.69;5035463;28;45580;-76
2022/06/15 05:09:51;;;;;;;;;5.25;4.50;;;;;25.71;38.71;100744.13;5037928;28;45373;-77
2022/06/15 05:12:17;;;;;;;;;4.00;4.00;;;;;26.19;37.75;100732.09;5043153;28;45539;-78
2022/06/15 05:14:46;;;;;;;;;5.25;5.25;;;;;26.53;36.79;100732.00;5044717;28;45419;-76
2022/06/15 05:17:11;;;;;;;;;4.00;4.00;;;;;26.68;36.53;100738.00;5033353;28;45646;-77
2022/06/15 05:19:36;;;;;;;;;3.25;3.25;;;;;27.04;35.78;100739.38;5033148;28;45386;-77
2022/06/15 05:22:02;;;;;;;;;5.00;4.75;;;;;26.86;35.91;100735.53;5029236;28;45419;-77
2022/06/15 05:24:28;;;;;;;;;6.25;4.00;;;;;27.04;35.55;100742.09;5030737;28;48108;-77
2022/06/15 05:26:54;;;;;;;;;3.75;3.75;;;;;27.40;35.21;100733.56;5033594;28;45436;-77
2022/06/15 05:29:19;;;;;;;;;4.75;4.75;;;;;27.64;34.61;100741.38;5034402;28;45787;-77
2022/06/15 05:31:44;;;;;;;;;4.50;4.50;;;;;27.73;34.38;100737.84;5035401;28;45442;-77
2022/06/15 05:34:10;;;;;;;;;6.25;6.25;;;;;27.79;34.25;100740.00;5032484;28;46400;-76
2022/06/15 05:36:36;;;;;;;;;8.25;6.75;;;;;28.35;33.47;100733.09;5037819;28;45535;-77
2022/06/15 05:39:03;;;;;;;;;4.75;4.75;;;;;28.72;32.69;100726.09;5041018;28;45497;-77
2022/06/15 05:41:29;;;;;;;;;5.00;3.00;;;;;28.86;32.40;100733.81;5041077;28;45476;-78
2022/06/15 05:46:26;;;;;;;;;5.25;4.00;;;;;29.48;31.73;100729.78;5037849;28;45573;-77
2022/06/15 05:48:54;;;;;;;;;7.50;5.50;;;;;29.90;30.63;100732.03;5047322;28;45444;-78
2022/06/15 05:51:20;;;;;;;;;6.75;3.75;;;;;29.89;30.69;100733.88;5034301;28;45558;-78
2022/06/15 05:53:45;;;;;;;;;5.00;5.00;;;;;30.08;30.48;100715.72;5043141;28;45553;-77
2022/06/15 05:56:10;;;;;;;;;3.25;3.25;;;;;29.75;30.52;100729.78;5046351;28;45399;-76
2022/06/15 05:58:35;;;;;;;;;5.75;5.75;;;;;29.95;30.50;100727.81;5044467;28;45486;-79
2022/06/15 06:01:12;;;;;;;;;5.00;5.00;;;;;30.55;29.99;100730.97;5030751;28;45611;-78
2022/06/15 06:03:39;;;;;;;;;5.00;5.00;;;;;31.09;29.31;100733.63;5042487;28;45610;-78
2022/06/15 06:06:04;;;;;;;;;5.00;4.50;;;;;31.44;28.38;100734.50;5050802;28;45597;-75
2022/06/15 06:08:30;;;;;;;;;8.00;7.25;;;;;31.91;28.49;100739.50;5033868;28;45419;-77
2022/06/15 06:10:56;;;;;;;;;8.00;6.75;;;;;32.38;27.85;100740.81;5045015;28;45469;-77
2022/06/15 06:13:21;;;;;;;;;5.50;4.50;;;;;32.83;27.27;100733.13;5051938;28;45441;-78
2022/06/15 06:15:46;;;;;;;;;9.75;6.50;;;;;33.19;26.64;100730.00;5048788;28;45407;-77
2022/06/15 06:18:12;;;;;;;;;6.50;6.50;;;;;33.63;25.43;100726.78;5024630;28;45436;-78
2022/06/15 06:20:37;;;;;;;;;5.75;5.75;;;;;33.67;25.99;100722.66;5034439;28;45566;-77
2022/06/15 06:23:02;;;;;;;;;9.00;7.00;;;;;33.76;25.14;100724.34;5044432;28;45787;-78
2022/06/15 06:25:29;;;;;;;;;8.00;5.50;;;;;33.76;25.64;100718.88;5055160;28;45505;-79
2022/06/15 06:27:54;;;;;;;;;9.00;7.00;;;;;33.87;25.08;100719.50;5049627;28;45349;-79
2022/06/15 06:30:21;;;;;;;;;6.25;6.25;;;;;34.21;25.37;100712.78;5036304;28;45564;-80
2022/06/15 06:32:48;;;;;;;;;7.00;7.00;;;;;34.45;23.93;100718.13;5021522;28;45515;-78
2022/06/15 06:35:14;;;;;;;;;8.75;4.00;;;;;34.80;25.08;100726.75;5044857;28;45470;-79
2022/06/15 06:37:40;;;;;;;;;5.75;4.75;;;;;35.30;24.08;100726.25;5050924;28;45524;-80
2022/06/15 06:40:06;;;;;;;;;8.25;7.00;;;;;35.56;23.93;100723.88;5037890;28;45425;-79
2022/06/15 06:42:32;;;;;;;;;7.50;7.50;;;;;35.87;22.82;100736.53;5034960;28;46145;-79
2022/06/15 06:44:57;;;;;;;;;5.25;5.25;;;;;35.95;23.10;100726.47;5035589;28;45439;-81
2022/06/15 06:47:23;;;;;;;;;6.00;6.00;;;;;35.84;22.51;100727.81;5045112;28;45524;-79
2022/06/15 06:49:48;;;;;;;;;5.75;5.75;;;;;35.59;23.31;100733.59;5050556;28;46858;-78
2022/06/15 06:52:14;;;;;;;;;5.75;5.75;;;;;35.82;22.63;100735.41;5049927;28;45752;-78
2022/06/15 06:54:40;;;;;;;;;5.00;5.00;;;;;36.15;22.73;100735.78;5049547;28;45524;-77
2022/06/15 06:57:05;;;;;;;;;6.00;6.00;;;;;36.38;22.34;100738.38;5034618;28;45339;-79
2022/06/15 06:59:31;;;;;;;;;7.00;7.00;;;;;36.28;22.36;100743.34;5054875;27;45351;-78
2022/06/15 07:01:56;;;;;;;;;6.25;6.00;;;;;36.47;22.06;100739.06;5032690;28;45606;-78
2022/06/15 07:04:21;;;;;;;;;6.00;6.00;;;;;36.82;22.00;100741.94;5051485;28;45421;-78
2022/06/15 07:06:47;;;;;;;;;6.00;5.00;;;;;36.81;21.75;100735.59;5035593;28;45423;-78
2022/06/15 07:09:13;;;;;;;;;8.50;8.50;;;;;36.90;21.49;100744.56;5049515;28;45498;-78
2022/06/15 07:11:42;;;;;;;;;6.50;6.50;;;;;36.95;21.07;100732.94;5049812;28;45476;-77
2022/06/15 07:14:07;;;;;;;;;10.00;9.25;;;;;36.98;21.42;100741.66;5046282;28;45452;-74
2022/06/15 07:16:32;;;;;;;;;8.75;6.00;;;;;37.14;21.66;100734.13;5046040;28;45476;-76
2022/06/15 07:18:58;;;;;;;;;8.00;5.75;;;;;37.33;21.29;100732.59;5058419;27;45619;-77
2022/06/15 07:21:26;;;;;;;;;8.50;8.00;;;;;37.40;21.43;100735.38;5049768;27;46212;-76
2022/06/15 07:23:55;;;;;;;;;6.75;6.50;;;;;37.83;21.37;100732.41;5063418;27;45441;-76
2022/06/15 07:26:38;;;;;;;;;4.50;4.50;;;;;37.75;20.98;100738.09;5041396;27;45456;-79
2022/06/15 07:29:04;;;;;;;;;6.25;5.25;;;;;38.06;20.58;100742.25;5039163;27;45393;-76
2022/06/15 07:31:33;;;;;;;;;4.75;4.00;;;;;38.13;20.37;100743.97;5054440;27;46225;-76
2022/06/15 07:33:59;;;;;;;;;6.00;6.00;;;;;38.33;20.97;100741.25;5073320;27;45484;-77
2022/06/15 07:36:25;;;;;;;;;7.75;6.00;;;;;38.28;19.69;100735.53;5058876;27;45420;-76
2022/06/15 07:38:55;;;;;;;;;6.50;5.50;;;;;38.28;20.11;100735.53;5038650;28;45494;-77
2022/06/15 07:41:22;;;;;;;;;5.00;5.00;;;;;37.74;20.45;100750.19;5033705;28;46251;-76
2022/06/15 07:43:48;;;;;;;;;6.00;6.00;;;;;37.77;20.14;100749.78;5038149;28;45953;-76
2022/06/15 07:46:13;;;;;;;;;7.00;4.25;;;;;37.82;20.06;100748.13;5032735;28;45496;-76
2022/06/15 07:51:28;;;;;;;;;5.00;5.00;;;;;37.47;20.35;100755.53;5040467;28;45380;-76
2022/06/15 07:53:55;;;;;;;;;5.75;5.75;;;;;37.37;20.65;100752.31;5037239;28;45482;-76
2022/06/15 07:56:21;;;;;;;;;8.00;5.75;;;;;37.54;20.31;100750.09;5040980;28;45607;-76
2022/06/15 07:58:46;;;;;;;;;4.50;4.50;;;;;36.72;21.26;100746.94;5037175;28;45448;-77
2022/06/15 08:01:12;;;;;;;;;6.00;6.00;;;;;36.43;21.97;100755.13;5044274;28;46190;-75
2022/06/15 08:03:37;;;;;;;;;5.75;5.75;;;;;36.60;21.49;100750.22;5029094;28;45483;-76
2022/06/15 08:06:03;;;;;;;;;6.00;5.00;;;;;36.81;21.17;100752.13;5029771;28;45430;-77
2022/06/15 08:08:30;;;;;;;;;6.50;5.75;;;;;36.97;21.06;100744.59;5030010;28;45327;-77
2022/06/15 08:10:55;;;;;;;;;4.50;4.50;;;;;37.39;20.51;100737.28;5033960;28;46660;-76
2022/06/15 08:13:21;;;;;;;;;7.00;7.00;;;;;37.15;20.90;100741.34;5044665;28;45920;-76
2022/06/15 08:15:48;;;;;;;;;5.00;4.25;;;;;37.02;20.66;100752.25;5038198;28;45384;-76
2022/06/15 08:18:17;;;;;;;;;6.00;4.75;;;;;37.28;20.72;100740.63;5047637;28;45338;-77
2022/06/15 08:20:59;;;;;;;;;5.00;4.75;;;;;37.31;21.11;100741.06;5045599;28;45464;-77
2022/06/15 08:23:28;;;;;;;;;7.50;6.50;;;;;37.77;20.54;100738.75;5039853;28;45444;-76
2022/06/15 08:25:57;;;;;;;;;5.00;5.00;;;;;38.01;19.75;100735.44;5039926;28;45442;-76
2022/06/15 08:28:26;;;;;;;;;6.25;6.25;;;;;37.88;20.03;100732.63;5028326;28;45372;-77
2022/06/15 08:30:52;;;;;;;;;4.00;4.00;;;;;38.20;20.17;100739.34;5032554;28;46577;-76
2022/06/15 08:33:18;;;;;;;;;3.50;3.50;;;;;38.19;19.25;100736.78;5039886;28;45493;-76
2022/06/15 08:35:44;;;;;;;;;6.75;5.25;;;;;38.34;18.98;100731.06;5032023;28;45344;-76
2022/06/15 08:38:15;;;;;;;;;3.00;3.00;;;;;38.59;19.11;100733.22;5041543;28;45670;-76
2022/06/15 08:41:06;;;;;;;;;4.00;3.00;;;;;38.56;18.83;100732.56;5023646;28;45524;-77
2022/06/15 08:43:50;;;;;;;;;4.75;4.75;;;;;38.65;18.69;100736.00;5031463;28;45353;-76
2022/06/15 08:46:27;;;;;;;;;3.00;3.00;;;;;37.96;19.16;100732.47;5044103;28;45364;-76
2022/06/15 08:49:18;;;;;;;;;5.00;4.00;;;;;38.45;18.97;100732.38;5027963;28;45310;-75
2022/06/15 08:51:48;;;;;;;;;5.50;5.50;;;;;38.09;18.87;100734.38;5033265;28;45924;-76
2022/06/15 08:54:58;;;;;;;;;4.25;4.25;;;;;38.11;19.51;100734.19;5045594;28;45319;-76
2022/06/15 08:57:46;;;;;;;;;4.25;3.00;;;;;38.14;19.04;100723.59;4989711;28;45543;-75
2022/06/15 09:00:27;;;;;;;;;4.50;3.50;;;;;38.41;19.53;100731.09;5005248;28;45598;-76
2022/06/15 09:03:04;;;;;;;;;4.50;3.25;;;;;38.66;18.98;100729.44;4989711;28;45521;-76
2022/06/15 09:05:47;;;;;;;;;5.25;3.50;;;;;38.38;18.97;100730.44;4997548;28;45584;-76
2022/06/15 09:08:39;;;;;;;;;7.00;5.00;;;;;38.36;19.64;100732.56;4998308;28;45431;-76
2022/06/15 09:11:22;;;;;;;;;3.75;3.75;;;;;38.32;19.14;100728.50;5005251;28;45438;-76
2022/06/15 09:14:05;;;;;;;;;3.00;3.00;;;;;38.62;19.26;100730.88;4999334;28;46559;-77
2022/06/15 09:16:33;;;;;;;;;5.50;5.50;;;;;38.54;19.27;100733.84;5001590;28;45400;-77
2022/06/15 09:19:10;;;;;;;;;4.50;4.50;;;;;38.32;19.24;100725.75;5004220;28;45621;-78
2022/06/15 09:21:50;;;;;;;;;3.50;3.50;;;;;38.02;18.86;100739.91;5003037;28;45607;-76
2022/06/15 09:24:39;;;;;;;;;4.50;4.50;;;;;37.49;19.46;100732.25;4998279;28;46491;-77
2022/06/15 09:27:11;;;;;;;;;2.50;2.50;;;;;37.56;19.63;100735.03;5005266;28;45509;-76
2022/06/15 09:29:45;;;;;;;;;5.00;5.00;;;;;37.72;19.26;100731.13;4995649;28;45770;-77
2022/06/15 09:32:42;;;;;;;;;5.50;4.75;;;;;38.03;19.06;100737.97;5018611;28;45407;-75
2022/06/15 09:35:18;;;;;;;;;4.75;4.75;;;;;38.12;19.07;100742.25;5035244;28;48219;-76
2022/06/15 09:37:50;;;;;;;;;4.00;4.00;;;;;38.08;18.92;100745.63;5043420;28;45585;-77
2022/06/15 09:40:16;;;;;;;;;4.25;4.00;;;;;37.65;19.21;100738.47;5032674;28;45303;-76
2022/06/15 09:43:01;;;;;;;;;3.50;3.50;;;;;37.90;19.02;100738.81;5029970;28;45407;-76
2022/06/15 09:45:27;;;;;;;;;7.00;6.00;;;;;37.94;19.01;100734.56;5047730;28;46113;-76
2022/06/15 09:48:10;;;;;;;;;6.75;4.50;;;;;38.16;18.91;100729.75;5038156;28;45385;-76
2022/06/15 09:50:43;;;;;;;;;2.00;2.00;;;;;38.13;18.52;100729.31;5035097;28;45388;-78
2022/06/15 09:53:28;;;;;;;;;4.75;4.75;;;;;38.30;19.38;100735.31;5028851;28;45484;-76
2022/06/15 09:56:04;;;;;;;;;7.00;7.00;;;;;38.42;19.27;100730.00;5047493;28;48435;-79
2022/06/15 09:58:37;;;;;;;;;7.50;6.75;;;;;38.34;19.09;100722.78;5039016;28;45310;-77
2022/06/15 10:01:03;;;;;;;;;7.75;6.00;;;;;38.57;18.33;100730.69;5041510;28;45557;-77
2022/06/15 10:03:35;;;;;;;;;7.75;7.75;;;;;38.76;19.47;100717.94;5041053;28;45339;-79
2022/06/15 10:06:42;;;;;;;;;6.25;6.25;;;;;38.73;18.62;100727.50;5042679;28;45452;-76
2022/06/15 10:09:11;;;;;;;;;6.25;6.25;;;;;38.13;18.65;100723.81;5021667;28;45573;-76
2022/06/15 10:11:44;;;;;;;;;4.75;4.75;;;;;38.30;18.30;100733.41;5001844;28;45391;-77
2022/06/15 10:14:26;;;;;;;;;4.75;4.25;;;;;38.10;17.98;100743.50;5011878;28;45355;-79
2022/06/15 10:16:59;;;;;;;;;5.50;5.50;;;;;38.07;18.90;100736.53;5012044;28;45577;-76
2022/06/15 10:19:27;;;;;;;;;5.75;5.75;;;;;38.21;19.17;100731.91;4990467;28;45510;-78
2022/06/15 10:21:56;;;;;;;;;3.50;3.50;;;;;38.55;18.09;100733.66;5001326;28;45437;-79
2022/06/15 10:24:26;;;;;;;;;6.50;6.50;;;;;38.80;18.12;100737.72;4992668;28;45616;-78
2022/06/15 10:27:20;;;;;;;;;6.75;6.75;;;;;38.54;18.56;100733.84;4999281;28;46156;-78
2022/06/15 10:30:12;;;;;;;;;5.00;5.00;;;;;38.67;18.13;100731.09;4997520;28;45729;-78
2022/06/15 10:32:56;;;;;;;;;6.00;6.00;;;;;38.73;17.89;100730.25;4983154;28;45479;-78
2022/06/15 10:35:21;;;;;;;;;9.00;6.25;;;;;38.91;18.38;100742.56;4987212;28;45351;-74
2022/06/15 10:38:01;;;;;;;;;5.50;5.50;;;;;38.62;17.88;100735.56;4994501;28;45513;-77
2022/06/15 10:40:29;;;;;;;;;5.50;5.00;;;;;38.31;18.52;100742.50;4957458;28;45415;-78
2022/06/15 10:43:06;;;;;;;;;5.25;5.00;;;;;38.61;19.53;100734.69;5011867;28;45415;-76
2022/06/15 10:45:42;;;;;;;;;6.00;6.00;;;;;38.68;18.61;100729.22;5044781;28;45540;-75
2022/06/15 10:48:20;;;;;;;;;6.00;6.00;;;;;38.59;19.21;100736.81;5027925;28;48131;-77
2022/06/15 10:51:06;;;;;;;;;4.75;3.75;;;;;38.54;18.47;100736.63;5034477;28;45370;-76
2022/06/15 10:53:37;;;;;;;;;4.50;3.00;;;;;38.71;19.09;100734.31;5030276;28;45440;-76
2022/06/15 11:02:07;;;;;;;;;6.00;6.00;;;;;38.94;19.48;100733.03;5032487;28;45478;-76
2022/06/15 11:04:51;;;;;;;;;7.75;5.00;;;;;39.19;19.66;100731.31;5039903;28;45559;-75
2022/06/15 11:07:28;;;;;;;;;5.00;5.00;;;;;39.52;19.04;100730.31;5030966;28;45575;-76
2022/06/15 11:09:53;;;;;;;;;8.00;6.75;;;;;39.55;18.45;100723.56;5038586;28;45640;-76
2022/06/15 11:12:27;;;;;;;;;5.25;4.50;;;;;39.35;18.92;100738.25;5044654;28;45487;-76
2022/06/15 11:15:05;;;;;;;;;6.50;6.00;;;;;38.90;18.25;100729.81;5045016;28;45329;-77
2022/06/15 11:20:47;;;;;;;;;7.75;7.75;;;;;38.90;19.26;100724.28;5032095;27;45782;-78
2022/06/15 11:23:16;;;;;;;;;7.00;7.00;;;;;38.92;19.49;100727.72;5048872;27;45497;-78
2022/06/15 11:26:52;;;;;;;;;7.50;6.25;;;;;38.89;18.97;100728.13;5035378;28;45589;-77
2022/06/15 11:28:55;;;;;;;;;9.50;9.00;;;;;38.64;19.52;100727.94;5028708;28;45658;-77
2022/06/15 11:31:25;;;;;;;;;6.25;6.25;;;;;38.57;19.24;100719.63;5036427;28;45476;-77
2022/06/15 11:34:04;;;;;;;;;10.50;8.00;;;;;38.09;18.46;100714.25;5038283;28;45477;-77
2022/06/15 11:36:36;;;;;;;;;7.75;7.75;;;;;38.02;19.49;100720.59;5031175;28;45550;-78
2022/06/15 11:39:40;;;;;;;;;7.00;7.00;;;;;38.32;20.45;100717.47;5027722;28;45478;-78
2022/06/15 11:42:11;;;;;;;;;6.75;6.00;;;;;38.44;19.28;100716.88;5079063;27;45752;-76
2022/06/15 11:44:42;;;;;;;;;8.25;6.25;;;;;38.65;19.44;100713.91;5087633;27;45479;-77
2022/06/15 11:47:27;;;;;;;;;8.00;8.00;;;;;38.69;18.99;100717.97;5059041;27;45456;-77
2022/06/15 11:50:20;;;;;;;;;7.50;7.50;;;;;38.47;19.50;100716.44;5078938;27;45484;-78
2022/06/15 11:53:12;;;;;;;;;8.50;7.75;;;;;38.29;20.21;100717.91;5056531;27;46083;-75
2022/06/15 11:56:02;;;;;;;;;8.00;8.00;;;;;38.17;19.72;100716.78;5076667;27;45504;-76
2022/06/15 11:59:01;;;;;;;;;7.00;7.00;;;;;37.93;20.06;100719.09;5059457;27;45512;-76